sensor_id;sensor_type;location;lat;lon;timestamp;temperature;humidity
26051;DHT22;13825;53.496;10.020;2023-07-28T00:00:16;16.40;99.90
26051;DHT22;13825;53.496;10.020;2023-07-28T00:03:00;16.40;99.90
26051;DHT22;13825;53.496;10.020;2023-07-28T00:05:46;16.40;99.90
26051;DHT22;13825;53.496;10.020;2023-07-28T00:19:55;16.40;99.90
26051;DHT22;13825;53.496;10.020;2023-07-28T00:23:44;16.50;99.90
26051;DHT22;13825;53.496;10.020;2023-07-28T00:30:14;16.40;99.90
26051;DHT22;13825;53.496;10.020;2023-07-28T00:33:03;16.40;99.90
26051;DHT22;13825;53.496;10.020;2023-07-28T00:35:39;16.40;99.90
26051;DHT22;13825;53.496;10.020;2023-07-28T00:41:08;16.40;99.90
26051;DHT22;13825;53.496;10.020;2023-07-28T00:43:43;16.40;99.90
26051;DHT22;13825;53.496;10.020;2023-07-28T00:46:20;16.40;99.90
26051;DHT22;13825;53.496;10.020;2023-07-28T00:49:03;16.40;99.90
26051;DHT22;13825;53.496;10.020;2023-07-28T00:51:57;16.40;99.90
26051;DHT22;13825;53.496;10.020;2023-07-28T00:54:28;16.40;99.90
26051;DHT22;13825;53.496;10.020;2023-07-28T00:57:22;16.40;99.90
26051;DHT22;13825;53.496;10.020;2023-07-28T01:00:17;16.30;99.90
26051;DHT22;13825;53.496;10.020;2023-07-28T01:03:11;16.40;99.90
26051;DHT22;13825;53.496;10.020;2023-07-28T01:09:39;16.40;99.90
26051;DHT22;13825;53.496;10.020;2023-07-28T01:12:54;16.40;99.90
26051;DHT22;13825;53.496;10.020;2023-07-28T01:15:55;16.40;99.90
26051;DHT22;13825;53.496;10.020;2023-07-28T01:18:59;16.40;99.90
26051;DHT22;13825;53.496;10.020;2023-07-28T01:32:42;16.30;99.90
26051;DHT22;13825;53.496;10.020;2023-07-28T07:23:55;18.30;99.90
26051;DHT22;13825;53.496;10.020;2023-07-28T07:26:22;18.30;99.90
26051;DHT22;13825;53.496;10.020;2023-07-28T07:28:49;18.30;99.90
26051;DHT22;13825;53.496;10.020;2023-07-28T07:31:16;18.40;99.90
26051;DHT22;13825;53.496;10.020;2023-07-28T07:33:44;18.30;99.90
26051;DHT22;13825;53.496;10.020;2023-07-28T07:36:12;18.30;99.90
26051;DHT22;13825;53.496;10.020;2023-07-28T07:38:39;18.40;99.90
26051;DHT22;13825;53.496;10.020;2023-07-28T07:59:14;18.70;99.90
26051;DHT22;13825;53.496;10.020;2023-07-28T08:01:41;18.70;99.90
26051;DHT22;13825;53.496;10.020;2023-07-28T08:04:08;18.70;99.90
26051;DHT22;13825;53.496;10.020;2023-07-28T08:06:36;18.80;99.90
26051;DHT22;13825;53.496;10.020;2023-07-28T08:09:03;19.00;99.90
26051;DHT22;13825;53.496;10.020;2023-07-28T08:11:30;19.10;99.90
26051;DHT22;13825;53.496;10.020;2023-07-28T08:13:58;19.20;99.90
26051;DHT22;13825;53.496;10.020;2023-07-28T08:16:27;19.30;99.90
26051;DHT22;13825;53.496;10.020;2023-07-28T08:18:56;19.10;99.90
26051;DHT22;13825;53.496;10.020;2023-07-28T08:21:23;19.10;99.90
26051;DHT22;13825;53.496;10.020;2023-07-28T08:23:53;18.90;99.90
26051;DHT22;13825;53.496;10.020;2023-07-28T08:26:22;18.90;99.90
26051;DHT22;13825;53.496;10.020;2023-07-28T08:28:49;19.20;99.90
26051;DHT22;13825;53.496;10.020;2023-07-28T08:31:18;19.20;99.90
26051;DHT22;13825;53.496;10.020;2023-07-28T08:33:50;19.50;99.90
26051;DHT22;13825;53.496;10.020;2023-07-28T08:36:32;19.50;99.90
26051;DHT22;13825;53.496;10.020;2023-07-28T09:27:36;21.30;1.00
26051;DHT22;13825;53.496;10.020;2023-07-28T09:30:06;21.20;99.90
26051;DHT22;13825;53.496;10.020;2023-07-28T09:32:34;21.00;99.90
26051;DHT22;13825;53.496;10.020;2023-07-28T09:35:07;20.90;99.90
26051;DHT22;13825;53.496;10.020;2023-07-28T09:37:39;20.80;99.90
26051;DHT22;13825;53.496;10.020;2023-07-28T09:40:08;20.90;99.90
26051;DHT22;13825;53.496;10.020;2023-07-28T09:42:38;20.90;99.90
26051;DHT22;13825;53.496;10.020;2023-07-28T09:45:06;20.90;99.90
26051;DHT22;13825;53.496;10.020;2023-07-28T09:47:34;20.90;99.90
26051;DHT22;13825;53.496;10.020;2023-07-28T09:50:03;20.90;99.90
26051;DHT22;13825;53.496;10.020;2023-07-28T09:52:33;21.00;23.80
26051;DHT22;13825;53.496;10.020;2023-07-28T09:55:05;21.00;99.90
26051;DHT22;13825;53.496;10.020;2023-07-28T09:57:38;20.60;64.70
26051;DHT22;13825;53.496;10.020;2023-07-28T10:00:08;20.70;99.90
26051;DHT22;13825;53.496;10.020;2023-07-28T10:02:40;20.70;99.90
26051;DHT22;13825;53.496;10.020;2023-07-28T10:05:08;20.90;99.90
26051;DHT22;13825;53.496;10.020;2023-07-28T10:07:38;20.50;99.90
26051;DHT22;13825;53.496;10.020;2023-07-28T10:10:08;20.10;99.90
26051;DHT22;13825;53.496;10.020;2023-07-28T10:12:46;20.40;99.90
26051;DHT22;13825;53.496;10.020;2023-07-28T10:15:20;20.60;99.90
26051;DHT22;13825;53.496;10.020;2023-07-28T10:17:53;20.60;99.90
26051;DHT22;13825;53.496;10.020;2023-07-28T10:20:31;20.40;99.90
26051;DHT22;13825;53.496;10.020;2023-07-28T10:28:38;20.70;99.90
26051;DHT22;13825;53.496;10.020;2023-07-28T10:31:09;20.90;99.90
26051;DHT22;13825;53.496;10.020;2023-07-28T10:33:38;20.90;99.90
26051;DHT22;13825;53.496;10.020;2023-07-28T10:36:13;21.00;99.90
26051;DHT22;13825;53.496;10.020;2023-07-28T10:38:41;20.90;1.00
26051;DHT22;13825;53.496;10.020;2023-07-28T10:41:14;21.00;28.70
26051;DHT22;13825;53.496;10.020;2023-07-28T10:43:45;21.10;1.00
26051;DHT22;13825;53.496;10.020;2023-07-28T10:46:15;21.30;99.90
26051;DHT22;13825;53.496;10.020;2023-07-28T10:48:45;21.10;32.80
26051;DHT22;13825;53.496;10.020;2023-07-28T10:51:20;21.10;1.00
26051;DHT22;13825;53.496;10.020;2023-07-28T10:53:50;21.40;99.90
26051;DHT22;13825;53.496;10.020;2023-07-28T10:56:18;21.70;99.90
26051;DHT22;13825;53.496;10.020;2023-07-28T10:58:54;22.10;99.90
26051;DHT22;13825;53.496;10.020;2023-07-28T11:01:23;22.10;99.90
26051;DHT22;13825;53.496;10.020;2023-07-28T11:03:52;22.00;99.90
26051;DHT22;13825;53.496;10.020;2023-07-28T11:06:19;22.00;99.90
26051;DHT22;13825;53.496;10.020;2023-07-28T11:08:46;22.00;99.90
26051;DHT22;13825;53.496;10.020;2023-07-28T11:11:15;22.20;99.90
26051;DHT22;13825;53.496;10.020;2023-07-28T11:13:43;22.00;99.90
26051;DHT22;13825;53.496;10.020;2023-07-28T11:16:11;21.90;99.90
26051;DHT22;13825;53.496;10.020;2023-07-28T11:18:38;22.20;99.90
26051;DHT22;13825;53.496;10.020;2023-07-28T11:21:06;22.30;99.90
26051;DHT22;13825;53.496;10.020;2023-07-28T11:23:33;22.50;99.90
26051;DHT22;13825;53.496;10.020;2023-07-28T11:26:00;22.70;99.90
26051;DHT22;13825;53.496;10.020;2023-07-28T11:28:27;22.60;99.90
26051;DHT22;13825;53.496;10.020;2023-07-28T11:30:56;22.80;24.90
26051;DHT22;13825;53.496;10.020;2023-07-28T11:33:27;23.20;99.90
26051;DHT22;13825;53.496;10.020;2023-07-28T11:36:05;22.90;1.00
26051;DHT22;13825;53.496;10.020;2023-07-28T11:38:34;22.80;16.00
26051;DHT22;13825;53.496;10.020;2023-07-28T11:41:03;23.40;1.00
26051;DHT22;13825;53.496;10.020;2023-07-28T11:43:33;23.80;1.00
26051;DHT22;13825;53.496;10.020;2023-07-28T11:46:01;23.90;1.00
26051;DHT22;13825;53.496;10.020;2023-07-28T11:48:33;23.90;1.00
26051;DHT22;13825;53.496;10.020;2023-07-28T11:51:00;23.50;62.90
26051;DHT22;13825;53.496;10.020;2023-07-28T11:53:32;23.60;46.90
26051;DHT22;13825;53.496;10.020;2023-07-28T11:56:00;23.60;99.90
26051;DHT22;13825;53.496;10.020;2023-07-28T11:58:35;23.50;1.00
26051;DHT22;13825;53.496;10.020;2023-07-28T12:01:08;23.60;1.00
26051;DHT22;13825;53.496;10.020;2023-07-28T12:03:41;23.70;1.00
26051;DHT22;13825;53.496;10.020;2023-07-28T12:06:09;23.90;99.90
26051;DHT22;13825;53.496;10.020;2023-07-28T12:08:36;24.10;1.00
26051;DHT22;13825;53.496;10.020;2023-07-28T12:11:11;23.70;1.00
26051;DHT22;13825;53.496;10.020;2023-07-28T12:13:53;23.50;1.00
26051;DHT22;13825;53.496;10.020;2023-07-28T12:16:57;23.20;1.00
26051;DHT22;13825;53.496;10.020;2023-07-28T12:19:25;23.00;99.90
26051;DHT22;13825;53.496;10.020;2023-07-28T12:22:18;22.90;1.00
26051;DHT22;13825;53.496;10.020;2023-07-28T12:24:45;22.50;99.90
26051;DHT22;13825;53.496;10.020;2023-07-28T12:27:15;22.70;99.90
26051;DHT22;13825;53.496;10.020;2023-07-28T12:29:45;22.60;1.00
26051;DHT22;13825;53.496;10.020;2023-07-28T12:32:12;22.70;99.90
26051;DHT22;13825;53.496;10.020;2023-07-28T12:34:40;22.50;14.60
26051;DHT22;13825;53.496;10.020;2023-07-28T12:37:07;22.60;1.00
26051;DHT22;13825;53.496;10.020;2023-07-28T12:39:37;22.50;99.90
26051;DHT22;13825;53.496;10.020;2023-07-28T12:42:05;22.40;99.90
26051;DHT22;13825;53.496;10.020;2023-07-28T12:44:33;22.20;1.00
26051;DHT22;13825;53.496;10.020;2023-07-28T12:47:01;22.20;1.00
26051;DHT22;13825;53.496;10.020;2023-07-28T12:49:31;22.50;1.00
26051;DHT22;13825;53.496;10.020;2023-07-28T12:52:09;22.80;1.00
26051;DHT22;13825;53.496;10.020;2023-07-28T12:54:36;22.70;1.00
26051;DHT22;13825;53.496;10.020;2023-07-28T12:57:08;22.30;1.00
26051;DHT22;13825;53.496;10.020;2023-07-28T12:59:40;22.40;1.00
26051;DHT22;13825;53.496;10.020;2023-07-28T13:02:13;22.30;99.90
26051;DHT22;13825;53.496;10.020;2023-07-28T13:04:40;22.00;99.90
26051;DHT22;13825;53.496;10.020;2023-07-28T13:07:08;21.90;99.90
26051;DHT22;13825;53.496;10.020;2023-07-28T13:09:37;21.90;99.90
26051;DHT22;13825;53.496;10.020;2023-07-28T13:12:05;22.00;1.00
26051;DHT22;13825;53.496;10.020;2023-07-28T13:14:33;21.90;1.00
26051;DHT22;13825;53.496;10.020;2023-07-28T13:17:02;21.80;1.00
26051;DHT22;13825;53.496;10.020;2023-07-28T13:19:29;21.60;99.90
26051;DHT22;13825;53.496;10.020;2023-07-28T13:21:56;21.60;1.00
26051;DHT22;13825;53.496;10.020;2023-07-28T13:24:24;21.20;99.90
26051;DHT22;13825;53.496;10.020;2023-07-28T13:26:51;21.00;99.90
26051;DHT22;13825;53.496;10.020;2023-07-28T13:29:18;20.90;99.90
26051;DHT22;13825;53.496;10.020;2023-07-28T13:31:45;20.70;99.90
26051;DHT22;13825;53.496;10.020;2023-07-28T13:34:12;20.70;99.90
26051;DHT22;13825;53.496;10.020;2023-07-28T13:36:39;20.60;99.90
26051;DHT22;13825;53.496;10.020;2023-07-28T13:39:06;21.00;99.90
26051;DHT22;13825;53.496;10.020;2023-07-28T13:41:34;21.60;99.90
26051;DHT22;13825;53.496;10.020;2023-07-28T13:44:03;22.30;99.90
26051;DHT22;13825;53.496;10.020;2023-07-28T13:46:30;22.60;99.90
26051;DHT22;13825;53.496;10.020;2023-07-28T13:48:59;22.50;99.90
26051;DHT22;13825;53.496;10.020;2023-07-28T13:51:26;23.00;99.90
26051;DHT22;13825;53.496;10.020;2023-07-28T13:56:26;24.40;99.90
26051;DHT22;13825;53.496;10.020;2023-07-28T13:58:55;24.50;99.90
26051;DHT22;13825;53.496;10.020;2023-07-28T14:01:21;24.30;1.00
26051;DHT22;13825;53.496;10.020;2023-07-28T14:03:48;24.50;1.00
26051;DHT22;13825;53.496;10.020;2023-07-28T14:06:16;24.50;99.90
26051;DHT22;13825;53.496;10.020;2023-07-28T14:08:43;24.00;1.00
26051;DHT22;13825;53.496;10.020;2023-07-28T14:11:13;24.20;1.00
26051;DHT22;13825;53.496;10.020;2023-07-28T14:13:40;24.10;1.00
26051;DHT22;13825;53.496;10.020;2023-07-28T14:16:11;24.00;1.00
26051;DHT22;13825;53.496;10.020;2023-07-28T14:18:41;23.60;1.00
26051;DHT22;13825;53.496;10.020;2023-07-28T14:21:08;23.80;99.90
26051;DHT22;13825;53.496;10.020;2023-07-28T14:23:35;23.90;1.00
26051;DHT22;13825;53.496;10.020;2023-07-28T14:26:02;23.40;1.00
26051;DHT22;13825;53.496;10.020;2023-07-28T14:28:29;23.40;1.00
26051;DHT22;13825;53.496;10.020;2023-07-28T14:30:56;23.60;1.00
26051;DHT22;13825;53.496;10.020;2023-07-28T14:33:25;23.80;99.90
26051;DHT22;13825;53.496;10.020;2023-07-28T14:35:52;24.20;1.00
26051;DHT22;13825;53.496;10.020;2023-07-28T14:38:19;25.30;1.00
26051;DHT22;13825;53.496;10.020;2023-07-28T14:40:46;25.30;1.00
26051;DHT22;13825;53.496;10.020;2023-07-28T14:43:14;25.60;3.70
26051;DHT22;13825;53.496;10.020;2023-07-28T14:45:41;25.60;1.00
26051;DHT22;13825;53.496;10.020;2023-07-28T14:54:50;27.40;99.90
26051;DHT22;13825;53.496;10.020;2023-07-28T15:01:43;28.10;1.00
26051;DHT22;13825;53.496;10.020;2023-07-28T15:04:24;28.50;99.90
26051;DHT22;13825;53.496;10.020;2023-07-28T15:06:51;28.20;1.00
26051;DHT22;13825;53.496;10.020;2023-07-28T15:09:18;29.10;99.90
26051;DHT22;13825;53.496;10.020;2023-07-28T15:11:49;28.80;1.00
26051;DHT22;13825;53.496;10.020;2023-07-28T15:14:16;29.20;99.90
26051;DHT22;13825;53.496;10.020;2023-07-28T15:16:43;28.80;99.90
26051;DHT22;13825;53.496;10.020;2023-07-28T15:19:10;28.90;1.00
26051;DHT22;13825;53.496;10.020;2023-07-28T15:21:37;29.40;99.90
26051;DHT22;13825;53.496;10.020;2023-07-28T15:24:04;28.10;99.90
26051;DHT22;13825;53.496;10.020;2023-07-28T15:26:31;27.30;99.90
26051;DHT22;13825;53.496;10.020;2023-07-28T15:29:02;26.40;1.00
26051;DHT22;13825;53.496;10.020;2023-07-28T15:32:35;26.40;99.90
26051;DHT22;13825;53.496;10.020;2023-07-28T15:35:31;26.00;1.00
26051;DHT22;13825;53.496;10.020;2023-07-28T15:38:25;25.70;1.00
26051;DHT22;13825;53.496;10.020;2023-07-28T15:41:26;27.10;1.00
26051;DHT22;13825;53.496;10.020;2023-07-28T15:44:35;28.70;99.90
26051;DHT22;13825;53.496;10.020;2023-07-28T15:47:40;30.20;1.00
26051;DHT22;13825;53.496;10.020;2023-07-28T15:50:30;29.70;1.00
26051;DHT22;13825;53.496;10.020;2023-07-28T15:53:26;28.50;99.90
26051;DHT22;13825;53.496;10.020;2023-07-28T15:56:31;26.40;1.00
26051;DHT22;13825;53.496;10.020;2023-07-28T15:59:29;25.90;1.00
26051;DHT22;13825;53.496;10.020;2023-07-28T16:16:21;23.80;99.90
26051;DHT22;13825;53.496;10.020;2023-07-28T16:19:56;23.40;1.00
26051;DHT22;13825;53.496;10.020;2023-07-28T16:25:38;25.50;1.00
26051;DHT22;13825;53.496;10.020;2023-07-28T16:31:44;26.20;1.00
26051;DHT22;13825;53.496;10.020;2023-07-28T16:34:19;26.60;1.00
26051;DHT22;13825;53.496;10.020;2023-07-28T16:36:51;27.00;99.90
26051;DHT22;13825;53.496;10.020;2023-07-28T16:39:41;27.10;99.90
26051;DHT22;13825;53.496;10.020;2023-07-28T16:42:09;26.00;1.00
26051;DHT22;13825;53.496;10.020;2023-07-28T16:44:36;25.90;1.00
26051;DHT22;13825;53.496;10.020;2023-07-28T16:57:22;24.90;99.90
26051;DHT22;13825;53.496;10.020;2023-07-28T17:06:52;24.50;1.00
26051;DHT22;13825;53.496;10.020;2023-07-28T17:19:24;23.40;1.00
26051;DHT22;13825;53.496;10.020;2023-07-28T17:25:24;23.50;1.00
26051;DHT22;13825;53.496;10.020;2023-07-28T17:30:42;24.30;99.90
26051;DHT22;13825;53.496;10.020;2023-07-28T17:35:39;26.90;99.90
26051;DHT22;13825;53.496;10.020;2023-07-28T17:48:14;26.10;99.90
26051;DHT22;13825;53.496;10.020;2023-07-28T17:51:00;25.40;1.00
26051;DHT22;13825;53.496;10.020;2023-07-28T17:53:50;25.80;1.00
26051;DHT22;13825;53.496;10.020;2023-07-28T18:36:49;26.40;99.90
26051;DHT22;13825;53.496;10.020;2023-07-28T18:39:18;25.50;1.00
26051;DHT22;13825;53.496;10.020;2023-07-28T18:41:45;24.80;99.90
26051;DHT22;13825;53.496;10.020;2023-07-28T18:44:12;24.40;1.00
26051;DHT22;13825;53.496;10.020;2023-07-28T18:46:39;23.80;99.90
26051;DHT22;13825;53.496;10.020;2023-07-28T18:49:06;23.50;1.00
26051;DHT22;13825;53.496;10.020;2023-07-28T18:51:34;23.00;99.90
26051;DHT22;13825;53.496;10.020;2023-07-28T18:54:02;22.70;1.00
26051;DHT22;13825;53.496;10.020;2023-07-28T18:56:29;22.40;99.90
26051;DHT22;13825;53.496;10.020;2023-07-28T18:58:56;22.10;1.00
26051;DHT22;13825;53.496;10.020;2023-07-28T19:01:23;21.80;9.70
26051;DHT22;13825;53.496;10.020;2023-07-28T19:03:50;21.70;1.00
26051;DHT22;13825;53.496;10.020;2023-07-28T19:06:17;21.50;1.00
26051;DHT22;13825;53.496;10.020;2023-07-28T19:08:45;21.40;99.90
26051;DHT22;13825;53.496;10.020;2023-07-28T19:11:14;21.10;99.90
26051;DHT22;13825;53.496;10.020;2023-07-28T19:13:40;21.00;1.00
26051;DHT22;13825;53.496;10.020;2023-07-28T19:16:08;20.80;33.20
26051;DHT22;13825;53.496;10.020;2023-07-28T19:18:35;20.70;99.90
26051;DHT22;13825;53.496;10.020;2023-07-28T19:21:03;20.50;99.90
26051;DHT22;13825;53.496;10.020;2023-07-28T19:23:29;20.50;99.90
26051;DHT22;13825;53.496;10.020;2023-07-28T19:25:57;20.60;99.90
26051;DHT22;13825;53.496;10.020;2023-07-28T19:28:25;20.50;99.90
26051;DHT22;13825;53.496;10.020;2023-07-28T19:30:52;20.50;99.90
26051;DHT22;13825;53.496;10.020;2023-07-28T19:33:20;20.50;99.90
26051;DHT22;13825;53.496;10.020;2023-07-28T19:35:47;20.40;99.90
26051;DHT22;13825;53.496;10.020;2023-07-28T19:38:14;20.30;99.90
26051;DHT22;13825;53.496;10.020;2023-07-28T19:40:41;20.20;99.90
26051;DHT22;13825;53.496;10.020;2023-07-28T19:43:08;20.20;99.90
26051;DHT22;13825;53.496;10.020;2023-07-28T19:45:36;20.10;99.90
26051;DHT22;13825;53.496;10.020;2023-07-28T19:48:03;20.10;99.90
26051;DHT22;13825;53.496;10.020;2023-07-28T19:50:30;20.00;99.90
26051;DHT22;13825;53.496;10.020;2023-07-28T19:52:57;19.90;99.90
26051;DHT22;13825;53.496;10.020;2023-07-28T19:55:24;19.90;99.90
26051;DHT22;13825;53.496;10.020;2023-07-28T19:57:51;19.80;99.90
26051;DHT22;13825;53.496;10.020;2023-07-28T20:00:18;19.70;99.90
26051;DHT22;13825;53.496;10.020;2023-07-28T20:02:46;19.70;99.90
26051;DHT22;13825;53.496;10.020;2023-07-28T20:05:13;19.60;99.90
26051;DHT22;13825;53.496;10.020;2023-07-28T20:07:42;19.60;99.90
26051;DHT22;13825;53.496;10.020;2023-07-28T20:10:11;19.60;99.90
26051;DHT22;13825;53.496;10.020;2023-07-28T20:12:38;19.60;99.90
26051;DHT22;13825;53.496;10.020;2023-07-28T20:15:05;19.40;99.90
26051;DHT22;13825;53.496;10.020;2023-07-28T20:17:32;19.40;99.90
26051;DHT22;13825;53.496;10.020;2023-07-28T20:20:01;19.40;99.90
26051;DHT22;13825;53.496;10.020;2023-07-28T20:22:29;19.40;99.90
26051;DHT22;13825;53.496;10.020;2023-07-28T20:24:56;19.30;99.90
26051;DHT22;13825;53.496;10.020;2023-07-28T20:27:22;19.30;99.90
26051;DHT22;13825;53.496;10.020;2023-07-28T20:29:50;19.20;99.90
26051;DHT22;13825;53.496;10.020;2023-07-28T20:32:17;19.20;99.90
26051;DHT22;13825;53.496;10.020;2023-07-28T20:34:44;19.10;99.90
26051;DHT22;13825;53.496;10.020;2023-07-28T20:37:12;19.20;99.90
26051;DHT22;13825;53.496;10.020;2023-07-28T20:39:39;19.10;99.90
26051;DHT22;13825;53.496;10.020;2023-07-28T20:42:06;19.00;99.90
26051;DHT22;13825;53.496;10.020;2023-07-28T20:44:33;19.00;99.90
26051;DHT22;13825;53.496;10.020;2023-07-28T20:47:00;19.00;99.90
26051;DHT22;13825;53.496;10.020;2023-07-28T20:49:26;19.00;99.90
26051;DHT22;13825;53.496;10.020;2023-07-28T20:51:53;19.00;99.90
26051;DHT22;13825;53.496;10.020;2023-07-28T20:54:22;18.90;99.90
26051;DHT22;13825;53.496;10.020;2023-07-28T20:56:48;19.00;99.90
26051;DHT22;13825;53.496;10.020;2023-07-28T20:59:15;19.00;99.90
26051;DHT22;13825;53.496;10.020;2023-07-28T21:01:42;19.00;99.90
26051;DHT22;13825;53.496;10.020;2023-07-28T21:04:09;19.00;99.90
26051;DHT22;13825;53.496;10.020;2023-07-28T21:06:36;19.00;99.90
26051;DHT22;13825;53.496;10.020;2023-07-28T21:09:03;19.00;99.90
26051;DHT22;13825;53.496;10.020;2023-07-28T21:11:31;18.90;99.90
26051;DHT22;13825;53.496;10.020;2023-07-28T21:13:58;18.90;99.90
26051;DHT22;13825;53.496;10.020;2023-07-28T21:16:26;18.90;99.90
26051;DHT22;13825;53.496;10.020;2023-07-28T21:18:53;18.90;99.90
26051;DHT22;13825;53.496;10.020;2023-07-28T21:21:20;18.90;99.90
26051;DHT22;13825;53.496;10.020;2023-07-28T21:23:48;18.90;99.90
26051;DHT22;13825;53.496;10.020;2023-07-28T21:26:15;18.90;99.90
26051;DHT22;13825;53.496;10.020;2023-07-28T21:28:43;18.90;99.90
26051;DHT22;13825;53.496;10.020;2023-07-28T21:31:10;18.90;99.90
26051;DHT22;13825;53.496;10.020;2023-07-28T21:33:37;18.80;99.90
26051;DHT22;13825;53.496;10.020;2023-07-28T21:36:04;18.80;99.90
26051;DHT22;13825;53.496;10.020;2023-07-28T21:38:31;18.80;99.90
26051;DHT22;13825;53.496;10.020;2023-07-28T21:40:58;18.80;99.90
26051;DHT22;13825;53.496;10.020;2023-07-28T21:43:24;18.80;99.90
26051;DHT22;13825;53.496;10.020;2023-07-28T21:45:53;18.70;99.90
26051;DHT22;13825;53.496;10.020;2023-07-28T21:48:20;18.60;99.90
26051;DHT22;13825;53.496;10.020;2023-07-28T21:50:47;18.60;99.90
26051;DHT22;13825;53.496;10.020;2023-07-28T21:53:14;18.60;99.90
26051;DHT22;13825;53.496;10.020;2023-07-28T21:55:41;18.60;99.90
26051;DHT22;13825;53.496;10.020;2023-07-28T21:58:07;18.60;99.90
26051;DHT22;13825;53.496;10.020;2023-07-28T22:00:34;18.60;99.90
26051;DHT22;13825;53.496;10.020;2023-07-28T22:03:03;18.60;99.90
26051;DHT22;13825;53.496;10.020;2023-07-28T22:05:29;18.50;99.90
26051;DHT22;13825;53.496;10.020;2023-07-28T22:07:57;18.60;99.90
26051;DHT22;13825;53.496;10.020;2023-07-28T22:10:23;18.60;99.90
26051;DHT22;13825;53.496;10.020;2023-07-28T22:12:50;18.60;99.90
26051;DHT22;13825;53.496;10.020;2023-07-28T22:15:17;18.60;99.90
26051;DHT22;13825;53.496;10.020;2023-07-28T22:17:44;18.60;99.90
26051;DHT22;13825;53.496;10.020;2023-07-28T22:20:12;18.60;99.90
26051;DHT22;13825;53.496;10.020;2023-07-28T22:22:39;18.70;99.90
26051;DHT22;13825;53.496;10.020;2023-07-28T22:25:07;18.60;99.90
26051;DHT22;13825;53.496;10.020;2023-07-28T22:27:34;18.60;99.90
26051;DHT22;13825;53.496;10.020;2023-07-28T22:30:01;18.60;99.90
26051;DHT22;13825;53.496;10.020;2023-07-28T22:32:28;18.70;99.90
26051;DHT22;13825;53.496;10.020;2023-07-28T22:34:55;18.70;99.90
26051;DHT22;13825;53.496;10.020;2023-07-28T22:37:23;18.70;99.90
26051;DHT22;13825;53.496;10.020;2023-07-28T22:39:50;18.80;99.90
26051;DHT22;13825;53.496;10.020;2023-07-28T22:42:17;18.80;99.90
26051;DHT22;13825;53.496;10.020;2023-07-28T22:44:43;18.80;99.90
26051;DHT22;13825;53.496;10.020;2023-07-28T22:47:11;18.70;99.90
26051;DHT22;13825;53.496;10.020;2023-07-28T22:49:38;18.80;99.90
26051;DHT22;13825;53.496;10.020;2023-07-28T22:52:05;18.80;99.90
26051;DHT22;13825;53.496;10.020;2023-07-28T22:54:33;18.80;99.90
26051;DHT22;13825;53.496;10.020;2023-07-28T22:57:00;18.80;99.90
26051;DHT22;13825;53.496;10.020;2023-07-28T22:59:27;18.80;99.90
26051;DHT22;13825;53.496;10.020;2023-07-28T23:01:54;18.70;99.90
26051;DHT22;13825;53.496;10.020;2023-07-28T23:04:21;18.70;99.90
26051;DHT22;13825;53.496;10.020;2023-07-28T23:06:48;18.80;99.90
26051;DHT22;13825;53.496;10.020;2023-07-28T23:09:14;18.80;99.90
26051;DHT22;13825;53.496;10.020;2023-07-28T23:11:43;18.80;99.90
26051;DHT22;13825;53.496;10.020;2023-07-28T23:14:10;18.80;99.90
26051;DHT22;13825;53.496;10.020;2023-07-28T23:16:37;18.80;99.90
26051;DHT22;13825;53.496;10.020;2023-07-28T23:19:04;18.80;99.90
26051;DHT22;13825;53.496;10.020;2023-07-28T23:21:31;18.70;99.90
26051;DHT22;13825;53.496;10.020;2023-07-28T23:23:58;18.60;99.90
26051;DHT22;13825;53.496;10.020;2023-07-28T23:26:25;18.60;99.90
26051;DHT22;13825;53.496;10.020;2023-07-28T23:28:54;18.60;99.90
26051;DHT22;13825;53.496;10.020;2023-07-28T23:31:20;18.50;99.90
26051;DHT22;13825;53.496;10.020;2023-07-28T23:33:49;18.40;99.90
26051;DHT22;13825;53.496;10.020;2023-07-28T23:36:16;18.30;99.90
26051;DHT22;13825;53.496;10.020;2023-07-28T23:38:42;18.30;99.90
26051;DHT22;13825;53.496;10.020;2023-07-28T23:41:09;18.30;99.90
26051;DHT22;13825;53.496;10.020;2023-07-28T23:43:36;18.30;99.90
26051;DHT22;13825;53.496;10.020;2023-07-28T23:46:04;18.20;99.90
26051;DHT22;13825;53.496;10.020;2023-07-28T23:48:31;18.20;99.90
26051;DHT22;13825;53.496;10.020;2023-07-28T23:50:58;18.20;99.90
26051;DHT22;13825;53.496;10.020;2023-07-28T23:53:27;18.10;99.90
26051;DHT22;13825;53.496;10.020;2023-07-28T23:55:55;18.00;99.90
26051;DHT22;13825;53.496;10.020;2023-07-28T23:58:21;18.00;99.90
